Terminal Aerodrome Forecast
Issued by NWS Sterling, VA

Current Version | Previous Version | Graphics & Text | Print | Product List | Glossary On
Versions: 1 2 3 4 5 6 7 8 9 10 11 12 13 14 15 16 17 18 19 20 21 22 23
927
FTUS41 KLWX 071734
TAFIAD
TAF
KIAD 071734Z 0718/0824 36006KT P6SM BKN200
     FM081600 06004KT P6SM BKN130
     FM081800 12005KT P6SM BKN050
     FM082100 12005KT P6SM BKN020 OVC050=

USA.gov is the U.S. government's official web portal to all federal, state and local government web resources and services.